sensor_id;sensor_type;location;lat;lon;timestamp;P1;durP1;ratioP1;P2;durP2;ratioP2
42886;SDS011;29032;56.028;92.904;2022-09-09T00:05:00;5.57;;;3.50;;
42886;SDS011;29032;56.028;92.904;2022-09-09T00:10:16;8.10;;;3.13;;
42886;SDS011;29032;56.028;92.904;2022-09-09T00:15:25;12.50;;;3.80;;
42886;SDS011;29032;56.028;92.904;2022-09-09T00:20:32;6.72;;;3.75;;
42886;SDS011;29032;56.028;92.904;2022-09-09T00:25:42;5.97;;;3.73;;
42886;SDS011;29032;56.028;92.904;2022-09-09T00:30:50;5.07;;;3.03;;
42886;SDS011;29032;56.028;92.904;2022-09-09T00:35:54;6.20;;;3.53;;
42886;SDS011;29032;56.028;92.904;2022-09-09T00:41:00;7.83;;;3.60;;
42886;SDS011;29032;56.028;92.904;2022-09-09T00:51:54;5.63;;;3.57;;
42886;SDS011;29032;56.028;92.904;2022-09-09T00:57:10;8.00;;;4.63;;
42886;SDS011;29032;56.028;92.904;2022-09-09T01:02:24;6.65;;;3.83;;
42886;SDS011;29032;56.028;92.904;2022-09-09T01:07:31;8.87;;;4.93;;
42886;SDS011;29032;56.028;92.904;2022-09-09T01:12:35;5.23;;;4.07;;
42886;SDS011;29032;56.028;92.904;2022-09-09T01:17:48;7.07;;;4.40;;
42886;SDS011;29032;56.028;92.904;2022-09-09T01:23:09;6.70;;;4.20;;
42886;SDS011;29032;56.028;92.904;2022-09-09T01:28:26;8.93;;;4.03;;
42886;SDS011;29032;56.028;92.904;2022-09-09T01:33:36;8.23;;;4.30;;
42886;SDS011;29032;56.028;92.904;2022-09-09T01:38:38;5.97;;;3.67;;
42886;SDS011;29032;56.028;92.904;2022-09-09T01:43:43;6.37;;;4.00;;
42886;SDS011;29032;56.028;92.904;2022-09-09T01:48:45;8.23;;;3.97;;
42886;SDS011;29032;56.028;92.904;2022-09-09T01:53:48;10.93;;;3.73;;
42886;SDS011;29032;56.028;92.904;2022-09-09T01:58:57;10.57;;;4.10;;
42886;SDS011;29032;56.028;92.904;2022-09-09T02:04:12;8.10;;;4.07;;
42886;SDS011;29032;56.028;92.904;2022-09-09T02:09:24;8.87;;;3.80;;
42886;SDS011;29032;56.028;92.904;2022-09-09T02:14:30;10.13;;;4.60;;
42886;SDS011;29032;56.028;92.904;2022-09-09T02:19:38;8.70;;;4.33;;
42886;SDS011;29032;56.028;92.904;2022-09-09T02:24:57;8.00;;;3.87;;
42886;SDS011;29032;56.028;92.904;2022-09-09T02:30:06;5.82;;;3.45;;
42886;SDS011;29032;56.028;92.904;2022-09-09T02:35:15;8.07;;;3.93;;
42886;SDS011;29032;56.028;92.904;2022-09-09T02:40:20;7.85;;;3.40;;
42886;SDS011;29032;56.028;92.904;2022-09-09T02:45:34;6.30;;;3.60;;
42886;SDS011;29032;56.028;92.904;2022-09-09T02:50:45;8.40;;;4.03;;
42886;SDS011;29032;56.028;92.904;2022-09-09T02:55:58;6.60;;;3.27;;
42886;SDS011;29032;56.028;92.904;2022-09-09T03:01:09;5.83;;;3.30;;
42886;SDS011;29032;56.028;92.904;2022-09-09T03:06:12;6.57;;;3.50;;
42886;SDS011;29032;56.028;92.904;2022-09-09T03:11:14;7.90;;;4.30;;
42886;SDS011;29032;56.028;92.904;2022-09-09T03:16:19;5.43;;;3.87;;
42886;SDS011;29032;56.028;92.904;2022-09-09T03:21:25;5.27;;;3.27;;
42886;SDS011;29032;56.028;92.904;2022-09-09T03:26:29;4.93;;;2.87;;
42886;SDS011;29032;56.028;92.904;2022-09-09T03:31:33;7.83;;;3.33;;
42886;SDS011;29032;56.028;92.904;2022-09-09T03:36:35;6.57;;;3.70;;
42886;SDS011;29032;56.028;92.904;2022-09-09T03:41:39;6.40;;;4.80;;
42886;SDS011;29032;56.028;92.904;2022-09-09T03:46:43;6.23;;;3.50;;
42886;SDS011;29032;56.028;92.904;2022-09-09T03:51:46;6.00;;;3.70;;
42886;SDS011;29032;56.028;92.904;2022-09-09T03:56:49;5.90;;;3.50;;
42886;SDS011;29032;56.028;92.904;2022-09-09T04:01:53;6.67;;;3.93;;
42886;SDS011;29032;56.028;92.904;2022-09-09T04:06:55;4.30;;;2.93;;
42886;SDS011;29032;56.028;92.904;2022-09-09T04:11:58;4.50;;;2.30;;
42886;SDS011;29032;56.028;92.904;2022-09-09T04:17:02;3.50;;;2.60;;
42886;SDS011;29032;56.028;92.904;2022-09-09T04:22:05;4.47;;;2.60;;
42886;SDS011;29032;56.028;92.904;2022-09-09T04:27:07;3.10;;;2.70;;
42886;SDS011;29032;56.028;92.904;2022-09-09T04:32:12;3.33;;;1.90;;
42886;SDS011;29032;56.028;92.904;2022-09-09T04:37:15;2.83;;;1.80;;
42886;SDS011;29032;56.028;92.904;2022-09-09T04:42:18;2.47;;;1.73;;
42886;SDS011;29032;56.028;92.904;2022-09-09T04:47:21;2.07;;;1.87;;
42886;SDS011;29032;56.028;92.904;2022-09-09T04:52:24;3.87;;;1.90;;
42886;SDS011;29032;56.028;92.904;2022-09-09T04:57:27;2.83;;;2.20;;
42886;SDS011;29032;56.028;92.904;2022-09-09T05:02:30;4.27;;;1.97;;
42886;SDS011;29032;56.028;92.904;2022-09-09T05:07:33;3.57;;;1.67;;
42886;SDS011;29032;56.028;92.904;2022-09-09T05:12:35;2.23;;;1.73;;
42886;SDS011;29032;56.028;92.904;2022-09-09T05:17:39;2.10;;;1.90;;
42886;SDS011;29032;56.028;92.904;2022-09-09T05:22:41;2.27;;;1.77;;
42886;SDS011;29032;56.028;92.904;2022-09-09T05:27:43;3.20;;;1.90;;
42886;SDS011;29032;56.028;92.904;2022-09-09T05:32:47;2.47;;;2.00;;
42886;SDS011;29032;56.028;92.904;2022-09-09T05:37:49;3.40;;;2.00;;
42886;SDS011;29032;56.028;92.904;2022-09-09T05:42:51;2.40;;;2.07;;
42886;SDS011;29032;56.028;92.904;2022-09-09T05:47:55;3.00;;;2.20;;
42886;SDS011;29032;56.028;92.904;2022-09-09T05:52:58;2.93;;;2.17;;
42886;SDS011;29032;56.028;92.904;2022-09-09T05:58:00;2.57;;;2.03;;
42886;SDS011;29032;56.028;92.904;2022-09-09T06:03:04;4.40;;;2.20;;
42886;SDS011;29032;56.028;92.904;2022-09-09T06:08:06;2.50;;;2.30;;
42886;SDS011;29032;56.028;92.904;2022-09-09T06:13:08;3.90;;;2.00;;
42886;SDS011;29032;56.028;92.904;2022-09-09T06:18:12;4.20;;;2.10;;
42886;SDS011;29032;56.028;92.904;2022-09-09T06:23:14;5.20;;;2.90;;
42886;SDS011;29032;56.028;92.904;2022-09-09T06:28:16;2.20;;;2.00;;
42886;SDS011;29032;56.028;92.904;2022-09-09T06:33:21;3.57;;;2.63;;
42886;SDS011;29032;56.028;92.904;2022-09-09T06:38:23;6.33;;;2.10;;
42886;SDS011;29032;56.028;92.904;2022-09-09T06:43:25;3.87;;;2.30;;
42886;SDS011;29032;56.028;92.904;2022-09-09T06:48:31;3.17;;;2.07;;
42886;SDS011;29032;56.028;92.904;2022-09-09T06:53:35;5.07;;;2.40;;
42886;SDS011;29032;56.028;92.904;2022-09-09T06:58:40;3.57;;;2.70;;
42886;SDS011;29032;56.028;92.904;2022-09-09T07:03:46;4.73;;;2.40;;
42886;SDS011;29032;56.028;92.904;2022-09-09T07:08:50;3.10;;;2.67;;
42886;SDS011;29032;56.028;92.904;2022-09-09T07:13:53;6.47;;;3.17;;
42886;SDS011;29032;56.028;92.904;2022-09-09T07:18:57;4.27;;;2.40;;
42886;SDS011;29032;56.028;92.904;2022-09-09T07:23:59;5.33;;;2.80;;
42886;SDS011;29032;56.028;92.904;2022-09-09T07:29:03;4.60;;;2.70;;
42886;SDS011;29032;56.028;92.904;2022-09-09T07:34:07;3.97;;;2.13;;
42886;SDS011;29032;56.028;92.904;2022-09-09T07:39:10;5.93;;;2.07;;
42886;SDS011;29032;56.028;92.904;2022-09-09T07:44:16;2.78;;;2.10;;
42886;SDS011;29032;56.028;92.904;2022-09-09T07:49:24;3.50;;;1.83;;
42886;SDS011;29032;56.028;92.904;2022-09-09T07:54:26;3.40;;;2.23;;
42886;SDS011;29032;56.028;92.904;2022-09-09T07:59:29;2.50;;;1.87;;
42886;SDS011;29032;56.028;92.904;2022-09-09T08:04:33;3.17;;;1.87;;
